sensor_id;sensor_type;location;lat;lon;timestamp;temperature;humidity
53286;DHT22;39171;45.550;12.074;2023-05-28T00:01:56;23.60;69.00
53286;DHT22;39171;45.550;12.074;2023-05-28T00:07:58;23.60;69.30
53286;DHT22;39171;45.550;12.074;2023-05-28T00:14:01;23.50;69.60
53286;DHT22;39171;45.550;12.074;2023-05-28T00:20:03;23.50;69.90
53286;DHT22;39171;45.550;12.074;2023-05-28T00:26:05;23.60;70.00
53286;DHT22;39171;45.550;12.074;2023-05-28T00:32:06;23.50;70.30
53286;DHT22;39171;45.550;12.074;2023-05-28T00:38:08;23.50;70.40
53286;DHT22;39171;45.550;12.074;2023-05-28T00:44:09;23.50;70.80
53286;DHT22;39171;45.550;12.074;2023-05-28T00:50:11;23.50;70.90
53286;DHT22;39171;45.550;12.074;2023-05-28T00:56:14;23.50;71.20
53286;DHT22;39171;45.550;12.074;2023-05-28T01:02:18;23.40;71.40
53286;DHT22;39171;45.550;12.074;2023-05-28T01:08:20;23.40;71.60
53286;DHT22;39171;45.550;12.074;2023-05-28T01:14:22;23.50;71.90
53286;DHT22;39171;45.550;12.074;2023-05-28T01:20:29;23.40;72.30
53286;DHT22;39171;45.550;12.074;2023-05-28T01:26:30;23.40;72.30
53286;DHT22;39171;45.550;12.074;2023-05-28T01:32:32;23.40;72.50
53286;DHT22;39171;45.550;12.074;2023-05-28T01:38:35;23.40;72.60
53286;DHT22;39171;45.550;12.074;2023-05-28T01:44:41;23.40;72.90
53286;DHT22;39171;45.550;12.074;2023-05-28T01:50:43;23.40;73.00
53286;DHT22;39171;45.550;12.074;2023-05-28T01:56:44;23.40;73.10
53286;DHT22;39171;45.550;12.074;2023-05-28T02:02:46;23.40;73.30
53286;DHT22;39171;45.550;12.074;2023-05-28T02:08:51;23.30;73.40
53286;DHT22;39171;45.550;12.074;2023-05-28T02:14:53;23.40;73.50
53286;DHT22;39171;45.550;12.074;2023-05-28T02:20:56;23.30;73.60
53286;DHT22;39171;45.550;12.074;2023-05-28T02:26:57;23.30;73.90
53286;DHT22;39171;45.550;12.074;2023-05-28T02:32:58;23.30;74.00
53286;DHT22;39171;45.550;12.074;2023-05-28T02:39:00;23.30;74.10
53286;DHT22;39171;45.550;12.074;2023-05-28T02:45:02;23.30;74.20
53286;DHT22;39171;45.550;12.074;2023-05-28T02:51:04;23.30;74.30
53286;DHT22;39171;45.550;12.074;2023-05-28T02:57:26;23.30;74.30
53286;DHT22;39171;45.550;12.074;2023-05-28T03:03:28;23.30;74.50
53286;DHT22;39171;45.550;12.074;2023-05-28T03:09:29;23.30;74.70
53286;DHT22;39171;45.550;12.074;2023-05-28T03:15:31;23.30;74.80
53286;DHT22;39171;45.550;12.074;2023-05-28T03:21:32;23.30;74.80
53286;DHT22;39171;45.550;12.074;2023-05-28T03:27:35;23.20;74.90
53286;DHT22;39171;45.550;12.074;2023-05-28T03:33:36;23.30;75.10
53286;DHT22;39171;45.550;12.074;2023-05-28T03:39:37;23.20;75.10
53286;DHT22;39171;45.550;12.074;2023-05-28T03:45:39;23.30;75.30
53286;DHT22;39171;45.550;12.074;2023-05-28T03:51:40;23.20;75.30
53286;DHT22;39171;45.550;12.074;2023-05-28T03:57:42;23.20;75.40
53286;DHT22;39171;45.550;12.074;2023-05-28T04:03:44;23.20;75.50
53286;DHT22;39171;45.550;12.074;2023-05-28T04:09:46;23.20;75.50
53286;DHT22;39171;45.550;12.074;2023-05-28T04:15:47;23.20;75.60
53286;DHT22;39171;45.550;12.074;2023-05-28T04:21:49;23.20;75.80
53286;DHT22;39171;45.550;12.074;2023-05-28T04:27:51;23.20;75.90
53286;DHT22;39171;45.550;12.074;2023-05-28T04:33:54;23.20;76.20
53286;DHT22;39171;45.550;12.074;2023-05-28T04:39:56;23.20;76.20
53286;DHT22;39171;45.550;12.074;2023-05-28T04:45:59;23.20;76.20
53286;DHT22;39171;45.550;12.074;2023-05-28T04:52:03;23.20;76.30
53286;DHT22;39171;45.550;12.074;2023-05-28T04:58:05;23.20;76.30
53286;DHT22;39171;45.550;12.074;2023-05-28T05:04:06;23.20;76.50
53286;DHT22;39171;45.550;12.074;2023-05-28T05:10:09;23.20;76.50
53286;DHT22;39171;45.550;12.074;2023-05-28T05:16:10;23.20;76.80
53286;DHT22;39171;45.550;12.074;2023-05-28T05:22:12;23.20;76.70
53286;DHT22;39171;45.550;12.074;2023-05-28T05:28:15;23.10;76.70
53286;DHT22;39171;45.550;12.074;2023-05-28T05:34:18;23.20;76.70
53286;DHT22;39171;45.550;12.074;2023-05-28T05:40:34;23.20;76.80
53286;DHT22;39171;45.550;12.074;2023-05-28T05:46:54;23.20;76.80
53286;DHT22;39171;45.550;12.074;2023-05-28T05:52:56;23.20;76.80
53286;DHT22;39171;45.550;12.074;2023-05-28T05:59:00;23.20;76.90
53286;DHT22;39171;45.550;12.074;2023-05-28T06:05:02;23.10;76.80
53286;DHT22;39171;45.550;12.074;2023-05-28T06:11:33;23.20;77.00
53286;DHT22;39171;45.550;12.074;2023-05-28T06:17:34;23.20;77.00
53286;DHT22;39171;45.550;12.074;2023-05-28T06:23:36;23.10;77.00
53286;DHT22;39171;45.550;12.074;2023-05-28T06:29:38;23.10;77.00
53286;DHT22;39171;45.550;12.074;2023-05-28T06:35:39;23.10;77.10
53286;DHT22;39171;45.550;12.074;2023-05-28T06:41:41;23.20;77.20
53286;DHT22;39171;45.550;12.074;2023-05-28T06:47:53;23.20;77.20
53286;DHT22;39171;45.550;12.074;2023-05-28T06:53:54;23.10;77.40
53286;DHT22;39171;45.550;12.074;2023-05-28T07:00:00;23.10;77.40
53286;DHT22;39171;45.550;12.074;2023-05-28T07:06:15;23.10;77.50
53286;DHT22;39171;45.550;12.074;2023-05-28T07:12:17;23.20;77.30
53286;DHT22;39171;45.550;12.074;2023-05-28T07:18:23;23.20;77.40
53286;DHT22;39171;45.550;12.074;2023-05-28T07:24:25;23.10;77.30
53286;DHT22;39171;45.550;12.074;2023-05-28T07:30:27;23.10;77.30
53286;DHT22;39171;45.550;12.074;2023-05-28T07:36:32;23.10;77.40
53286;DHT22;39171;45.550;12.074;2023-05-28T07:42:34;23.20;77.30
53286;DHT22;39171;45.550;12.074;2023-05-28T07:48:38;23.10;77.30
53286;DHT22;39171;45.550;12.074;2023-05-28T07:54:53;23.20;77.40
53286;DHT22;39171;45.550;12.074;2023-05-28T08:00:55;23.10;77.40
53286;DHT22;39171;45.550;12.074;2023-05-28T08:06:57;23.10;77.40
53286;DHT22;39171;45.550;12.074;2023-05-28T08:13:00;23.10;77.40
53286;DHT22;39171;45.550;12.074;2023-05-28T08:19:03;23.10;77.30
53286;DHT22;39171;45.550;12.074;2023-05-28T08:25:05;23.20;77.10
53286;DHT22;39171;45.550;12.074;2023-05-28T08:31:07;23.10;77.10
53286;DHT22;39171;45.550;12.074;2023-05-28T08:37:19;23.20;77.00
53286;DHT22;39171;45.550;12.074;2023-05-28T08:43:44;23.20;76.80
53286;DHT22;39171;45.550;12.074;2023-05-28T08:49:53;23.20;76.70
53286;DHT22;39171;45.550;12.074;2023-05-28T08:55:58;23.20;76.50
53286;DHT22;39171;45.550;12.074;2023-05-28T09:02:03;23.20;76.60
53286;DHT22;39171;45.550;12.074;2023-05-28T09:08:07;23.20;75.70
53286;DHT22;39171;45.550;12.074;2023-05-28T09:14:11;23.20;76.10
53286;DHT22;39171;45.550;12.074;2023-05-28T09:20:13;23.30;75.90
53286;DHT22;39171;45.550;12.074;2023-05-28T09:26:16;23.30;75.90
53286;DHT22;39171;45.550;12.074;2023-05-28T09:32:28;23.30;75.80
53286;DHT22;39171;45.550;12.074;2023-05-28T09:38:40;23.20;75.60
53286;DHT22;39171;45.550;12.074;2023-05-28T09:44:41;23.20;75.90
53286;DHT22;39171;45.550;12.074;2023-05-28T09:50:44;23.30;75.50
53286;DHT22;39171;45.550;12.074;2023-05-28T09:56:47;23.30;75.50
53286;DHT22;39171;45.550;12.074;2023-05-28T10:02:56;23.30;75.20
53286;DHT22;39171;45.550;12.074;2023-05-28T10:09:00;23.30;74.60
53286;DHT22;39171;45.550;12.074;2023-05-28T10:15:02;23.40;74.90
53286;DHT22;39171;45.550;12.074;2023-05-28T10:21:04;23.40;74.10
53286;DHT22;39171;45.550;12.074;2023-05-28T10:27:07;23.50;73.20
53286;DHT22;39171;45.550;12.074;2023-05-28T10:33:16;23.50;72.00
53286;DHT22;39171;45.550;12.074;2023-05-28T10:39:18;23.50;71.20
53286;DHT22;39171;45.550;12.074;2023-05-28T10:45:34;23.60;70.70
53286;DHT22;39171;45.550;12.074;2023-05-28T10:51:58;23.60;70.60
53286;DHT22;39171;45.550;12.074;2023-05-28T10:58:07;23.60;70.00
53286;DHT22;39171;45.550;12.074;2023-05-28T11:04:12;23.60;69.40
53286;DHT22;39171;45.550;12.074;2023-05-28T11:10:15;23.70;68.80
53286;DHT22;39171;45.550;12.074;2023-05-28T11:16:18;23.70;68.70
53286;DHT22;39171;45.550;12.074;2023-05-28T11:22:20;23.70;68.00
53286;DHT22;39171;45.550;12.074;2023-05-28T11:28:22;23.70;67.20
53286;DHT22;39171;45.550;12.074;2023-05-28T11:34:23;23.80;66.60
53286;DHT22;39171;45.550;12.074;2023-05-28T11:40:24;23.80;65.70
53286;DHT22;39171;45.550;12.074;2023-05-28T11:46:26;23.80;65.20
53286;DHT22;39171;45.550;12.074;2023-05-28T11:52:30;23.80;64.90
53286;DHT22;39171;45.550;12.074;2023-05-28T11:58:32;23.90;64.50
53286;DHT22;39171;45.550;12.074;2023-05-28T12:04:34;24.00;63.90
53286;DHT22;39171;45.550;12.074;2023-05-28T12:10:35;24.00;63.20
53286;DHT22;39171;45.550;12.074;2023-05-28T12:16:44;24.10;62.80
53286;DHT22;39171;45.550;12.074;2023-05-28T12:23:05;24.10;62.00
53286;DHT22;39171;45.550;12.074;2023-05-28T12:29:10;24.10;61.30
53286;DHT22;39171;45.550;12.074;2023-05-28T12:35:12;24.20;60.80
53286;DHT22;39171;45.550;12.074;2023-05-28T12:41:13;24.30;60.30
53286;DHT22;39171;45.550;12.074;2023-05-28T12:47:17;24.30;59.50
53286;DHT22;39171;45.550;12.074;2023-05-28T12:53:18;24.40;59.40
53286;DHT22;39171;45.550;12.074;2023-05-28T12:59:21;24.40;58.90
53286;DHT22;39171;45.550;12.074;2023-05-28T13:05:23;24.50;58.50
53286;DHT22;39171;45.550;12.074;2023-05-28T13:11:24;24.50;58.00
53286;DHT22;39171;45.550;12.074;2023-05-28T13:17:26;24.50;57.50
53286;DHT22;39171;45.550;12.074;2023-05-28T13:23:27;24.70;57.40
53286;DHT22;39171;45.550;12.074;2023-05-28T13:29:36;24.70;56.80
53286;DHT22;39171;45.550;12.074;2023-05-28T13:35:37;24.70;56.40
53286;DHT22;39171;45.550;12.074;2023-05-28T13:41:42;24.80;56.10
53286;DHT22;39171;45.550;12.074;2023-05-28T13:47:47;24.80;55.60
53286;DHT22;39171;45.550;12.074;2023-05-28T13:53:48;24.90;55.10
53286;DHT22;39171;45.550;12.074;2023-05-28T13:59:50;25.00;54.70
53286;DHT22;39171;45.550;12.074;2023-05-28T14:05:53;25.00;54.50
53286;DHT22;39171;45.550;12.074;2023-05-28T14:11:54;25.10;54.40
53286;DHT22;39171;45.550;12.074;2023-05-28T14:17:59;25.10;54.30
53286;DHT22;39171;45.550;12.074;2023-05-28T14:24:00;25.10;54.20
53286;DHT22;39171;45.550;12.074;2023-05-28T14:30:02;25.10;53.90
53286;DHT22;39171;45.550;12.074;2023-05-28T14:36:06;25.10;53.80
53286;DHT22;39171;45.550;12.074;2023-05-28T14:42:11;25.20;53.90
53286;DHT22;39171;45.550;12.074;2023-05-28T14:48:12;25.10;54.00
53286;DHT22;39171;45.550;12.074;2023-05-28T14:54:14;25.10;54.10
53286;DHT22;39171;45.550;12.074;2023-05-28T15:00:15;25.20;54.00
53286;DHT22;39171;45.550;12.074;2023-05-28T15:06:17;25.10;53.70
53286;DHT22;39171;45.550;12.074;2023-05-28T15:12:18;25.10;53.60
53286;DHT22;39171;45.550;12.074;2023-05-28T15:18:20;25.00;53.40
53286;DHT22;39171;45.550;12.074;2023-05-28T15:24:22;25.00;53.20
53286;DHT22;39171;45.550;12.074;2023-05-28T15:30:23;25.00;52.90
53286;DHT22;39171;45.550;12.074;2023-05-28T15:36:25;25.00;52.50
53286;DHT22;39171;45.550;12.074;2023-05-28T15:42:27;25.00;52.20
53286;DHT22;39171;45.550;12.074;2023-05-28T15:48:28;24.90;52.10
53286;DHT22;39171;45.550;12.074;2023-05-28T15:54:30;24.90;52.00
53286;DHT22;39171;45.550;12.074;2023-05-28T16:00:31;24.90;51.90
53286;DHT22;39171;45.550;12.074;2023-05-28T16:06:33;24.90;51.80
53286;DHT22;39171;45.550;12.074;2023-05-28T16:12:35;24.90;52.00
53286;DHT22;39171;45.550;12.074;2023-05-28T16:18:38;24.80;52.00
53286;DHT22;39171;45.550;12.074;2023-05-28T16:24:39;24.90;52.10
53286;DHT22;39171;45.550;12.074;2023-05-28T16:30:42;24.90;52.20
53286;DHT22;39171;45.550;12.074;2023-05-28T16:36:45;24.90;52.20
53286;DHT22;39171;45.550;12.074;2023-05-28T16:42:47;24.90;52.20
53286;DHT22;39171;45.550;12.074;2023-05-28T16:48:50;24.90;52.10
53286;DHT22;39171;45.550;12.074;2023-05-28T16:54:53;24.90;52.20
53286;DHT22;39171;45.550;12.074;2023-05-28T17:00:57;24.90;52.20
53286;DHT22;39171;45.550;12.074;2023-05-28T17:06:58;24.80;52.40
53286;DHT22;39171;45.550;12.074;2023-05-28T17:13:00;24.80;52.70
53286;DHT22;39171;45.550;12.074;2023-05-28T17:19:01;24.80;53.10
53286;DHT22;39171;45.550;12.074;2023-05-28T17:25:02;24.70;53.40
53286;DHT22;39171;45.550;12.074;2023-05-28T17:31:04;24.70;53.70
53286;DHT22;39171;45.550;12.074;2023-05-28T17:37:06;24.60;54.00
53286;DHT22;39171;45.550;12.074;2023-05-28T17:43:07;24.60;54.30
53286;DHT22;39171;45.550;12.074;2023-05-28T17:49:09;24.50;54.60
53286;DHT22;39171;45.550;12.074;2023-05-28T17:55:11;24.50;54.90
53286;DHT22;39171;45.550;12.074;2023-05-28T18:01:12;24.50;55.10
53286;DHT22;39171;45.550;12.074;2023-05-28T18:07:13;24.40;55.20
53286;DHT22;39171;45.550;12.074;2023-05-28T18:13:15;24.40;55.40
53286;DHT22;39171;45.550;12.074;2023-05-28T18:19:16;24.40;55.60
53286;DHT22;39171;45.550;12.074;2023-05-28T18:25:18;24.30;55.80
53286;DHT22;39171;45.550;12.074;2023-05-28T18:31:19;24.30;55.90
53286;DHT22;39171;45.550;12.074;2023-05-28T18:37:25;24.30;56.10
53286;DHT22;39171;45.550;12.074;2023-05-28T18:43:27;24.20;56.40
53286;DHT22;39171;45.550;12.074;2023-05-28T18:49:28;24.20;56.60
53286;DHT22;39171;45.550;12.074;2023-05-28T18:55:30;24.20;56.70
53286;DHT22;39171;45.550;12.074;2023-05-28T19:01:32;24.20;57.00
53286;DHT22;39171;45.550;12.074;2023-05-28T19:07:34;24.10;57.50
53286;DHT22;39171;45.550;12.074;2023-05-28T19:13:35;24.10;58.00
53286;DHT22;39171;45.550;12.074;2023-05-28T19:19:36;24.10;58.30
53286;DHT22;39171;45.550;12.074;2023-05-28T19:25:38;24.10;58.90
53286;DHT22;39171;45.550;12.074;2023-05-28T19:31:42;24.00;59.30
53286;DHT22;39171;45.550;12.074;2023-05-28T19:37:46;24.00;60.00
53286;DHT22;39171;45.550;12.074;2023-05-28T19:43:50;24.00;60.70
53286;DHT22;39171;45.550;12.074;2023-05-28T19:49:51;24.00;61.10
53286;DHT22;39171;45.550;12.074;2023-05-28T19:55:53;24.00;61.70
53286;DHT22;39171;45.550;12.074;2023-05-28T20:01:54;24.00;62.10
53286;DHT22;39171;45.550;12.074;2023-05-28T20:07:56;23.90;62.50
53286;DHT22;39171;45.550;12.074;2023-05-28T20:13:57;23.90;62.80
53286;DHT22;39171;45.550;12.074;2023-05-28T20:19:59;23.90;63.30
53286;DHT22;39171;45.550;12.074;2023-05-28T20:26:01;23.90;63.60
53286;DHT22;39171;45.550;12.074;2023-05-28T20:32:05;23.90;64.00
53286;DHT22;39171;45.550;12.074;2023-05-28T20:38:07;23.80;64.50
53286;DHT22;39171;45.550;12.074;2023-05-28T20:44:08;23.80;64.80
53286;DHT22;39171;45.550;12.074;2023-05-28T20:50:09;23.80;65.40
53286;DHT22;39171;45.550;12.074;2023-05-28T20:56:11;23.80;65.90
53286;DHT22;39171;45.550;12.074;2023-05-28T21:02:14;23.80;66.30
53286;DHT22;39171;45.550;12.074;2023-05-28T21:08:15;23.80;66.90
53286;DHT22;39171;45.550;12.074;2023-05-28T21:14:18;23.80;67.30
53286;DHT22;39171;45.550;12.074;2023-05-28T21:20:19;23.80;67.80
53286;DHT22;39171;45.550;12.074;2023-05-28T21:26:21;23.70;68.20
53286;DHT22;39171;45.550;12.074;2023-05-28T21:32:22;23.70;68.50
53286;DHT22;39171;45.550;12.074;2023-05-28T21:38:24;23.70;68.90
53286;DHT22;39171;45.550;12.074;2023-05-28T21:44:26;23.70;69.30
53286;DHT22;39171;45.550;12.074;2023-05-28T21:50:27;23.70;69.40
53286;DHT22;39171;45.550;12.074;2023-05-28T21:56:28;23.70;69.70
53286;DHT22;39171;45.550;12.074;2023-05-28T22:02:30;23.70;70.10
53286;DHT22;39171;45.550;12.074;2023-05-28T22:08:31;23.60;70.40
53286;DHT22;39171;45.550;12.074;2023-05-28T22:14:33;23.70;70.70
53286;DHT22;39171;45.550;12.074;2023-05-28T22:20:34;23.60;70.90
53286;DHT22;39171;45.550;12.074;2023-05-28T22:26:36;23.60;71.00
53286;DHT22;39171;45.550;12.074;2023-05-28T22:32:38;23.60;71.30
53286;DHT22;39171;45.550;12.074;2023-05-28T22:38:40;23.50;71.50
53286;DHT22;39171;45.550;12.074;2023-05-28T22:44:41;23.60;71.80
53286;DHT22;39171;45.550;12.074;2023-05-28T22:50:43;23.50;72.00
53286;DHT22;39171;45.550;12.074;2023-05-28T22:56:44;23.50;72.10
53286;DHT22;39171;45.550;12.074;2023-05-28T23:02:46;23.50;72.30
53286;DHT22;39171;45.550;12.074;2023-05-28T23:08:48;23.50;72.60
53286;DHT22;39171;45.550;12.074;2023-05-28T23:14:50;23.50;72.60
53286;DHT22;39171;45.550;12.074;2023-05-28T23:20:51;23.50;72.90
53286;DHT22;39171;45.550;12.074;2023-05-28T23:26:53;23.50;73.10
53286;DHT22;39171;45.550;12.074;2023-05-28T23:32:59;23.50;73.30
53286;DHT22;39171;45.550;12.074;2023-05-28T23:39:01;23.40;73.50
53286;DHT22;39171;45.550;12.074;2023-05-28T23:45:02;23.40;73.60
53286;DHT22;39171;45.550;12.074;2023-05-28T23:51:04;23.40;73.90
53286;DHT22;39171;45.550;12.074;2023-05-28T23:57:06;23.40;74.00
